createdAt,value
2023-01-23T00:04:58.382Z,98.6
2023-01-23T00:20:33.149Z,97.5
2023-01-23T00:36:07.912Z,95
2023-01-23T00:51:42.972Z,95.2
2023-01-23T01:07:17.706Z,96.6
2023-01-23T01:22:52.455Z,95.9
2023-01-23T01:38:27.196Z,96.9
2023-01-23T01:54:01.977Z,95.4
2023-01-23T02:09:36.771Z,95.5
2023-01-23T02:25:11.550Z,95.8
2023-01-23T02:40:46.652Z,97.3
2023-01-23T02:56:21.419Z,99
2023-01-23T03:11:56.093Z,99.1
2023-01-23T03:27:30.895Z,97.3
2023-01-23T03:43:05.696Z,96.9
2023-01-23T03:58:40.522Z,97.2
2023-01-23T04:14:15.181Z,98
2023-01-23T04:29:49.990Z,99.9
2023-01-23T04:45:24.743Z,99.9
2023-01-23T05:00:59.571Z,99.9
2023-01-23T05:16:34.684Z,99.9
2023-01-23T05:32:09.538Z,99.9
2023-01-23T05:47:44.207Z,99.9
2023-01-23T06:03:19.142Z,99.9
2023-01-23T06:18:53.987Z,99.9
2023-01-23T06:34:28.777Z,99.9
2023-01-23T06:50:03.553Z,99.9
2023-01-23T07:05:38.332Z,99.9
2023-01-23T07:21:13.169Z,99.9
2023-01-23T07:36:47.932Z,99.9
2023-01-23T07:52:22.731Z,99.9
2023-01-23T08:08:14.751Z,98.4
2023-01-23T08:23:49.561Z,97.2
2023-01-23T08:39:24.336Z,97.9
2023-01-23T08:54:59.166Z,97.1
2023-01-23T09:10:34.000Z,95
2023-01-23T09:26:08.740Z,94
2023-01-23T09:41:43.526Z,94.5
2023-01-23T09:57:18.222Z,94.6
2023-01-23T10:12:53.228Z,94.6
2023-01-23T10:28:28.037Z,95.1
2023-01-23T10:44:02.946Z,96.2
2023-01-23T10:59:37.728Z,97.7
2023-01-23T11:15:12.440Z,96.9
2023-01-23T11:30:47.591Z,97.1
2023-01-23T11:46:22.812Z,96.7
2023-01-23T12:02:04.796Z,96.5
2023-01-23T12:17:41.538Z,93.7
2023-01-23T12:33:16.240Z,93
2023-01-23T12:48:51.160Z,97.1
2023-01-23T13:04:26.330Z,97.5
2023-01-23T13:20:01.180Z,99.9
2023-01-23T13:35:36.039Z,99.9
2023-01-23T13:51:10.624Z,99.9
2023-01-23T14:06:45.464Z,99.9
2023-01-23T14:22:20.307Z,99.9
2023-01-23T14:37:55.016Z,99.9
2023-01-23T14:53:29.901Z,99.9
2023-01-23T15:09:04.698Z,99.9
2023-01-23T15:24:39.551Z,99.9
2023-01-23T15:40:14.041Z,99.9
2023-01-23T15:55:49.486Z,99.9
2023-01-23T16:11:24.261Z,99.9
2023-01-23T16:26:59.026Z,99.9
2023-01-23T16:42:33.699Z,99.9
2023-01-23T16:58:08.804Z,99.9
2023-01-23T17:13:43.577Z,99.9
2023-01-23T17:29:19.063Z,99.9
2023-01-23T17:44:54.261Z,99.9
2023-01-23T18:00:29.325Z,99.9
2023-01-23T18:16:04.162Z,99.9
2023-01-23T18:31:39.581Z,99.9
2023-01-23T18:47:14.383Z,99.9
2023-01-23T19:02:49.247Z,99.9
2023-01-23T19:18:41.385Z,99.9
2023-01-23T19:34:16.414Z,99.9
2023-01-23T19:49:51.188Z,99.9
2023-01-23T20:05:25.886Z,99.9
2023-01-23T20:21:00.674Z,99.9
2023-01-23T20:36:35.440Z,99.9
2023-01-23T20:52:10.223Z,99.9
2023-01-23T21:07:45.004Z,98.8
2023-01-23T21:23:19.593Z,97.8
2023-01-23T21:38:54.364Z,96.9
2023-01-23T21:54:29.165Z,97.2
2023-01-23T22:10:04.019Z,96.7
2023-01-23T22:25:38.604Z,94.3
2023-01-23T22:41:13.274Z,95.8
2023-01-23T22:56:48.059Z,95.9
2023-01-23T23:12:22.849Z,94.5
2023-01-23T23:27:57.637Z,95.9
2023-01-23T23:43:32.567Z,96.9
2023-01-23T23:59:07.366Z,96.6
